Time;durP1;ratioP1;P1;durP2;ratioP2;P2;SDS_P1;SDS_P2;PMS_P1;PMS_P2;Temp;Humidity;BMP_temperature;BMP_pressure;BME280_temperature;BME280_humidity;BME280_pressure;Samples;Min_cycle;Max_cycle;Signal;HPM_P1;HPM_P2
2023/01/22 00:02:23;;;;;;;36.17;12.63;;;;;;;-2.25;100.00;103290.69;4971868;28;20034;-78
2023/01/22 00:04:51;;;;;;;68.65;44.13;;;;;;;-2.36;100.00;103290.50;4971400;28;20086;-78
2023/01/22 00:07:17;;;;;;;75.13;45.88;;;;;;;-2.39;100.00;103294.75;4971549;28;20039;-80
2023/01/22 00:09:50;;;;;;;74.00;44.92;;;;;;;-2.37;100.00;103303.38;4969903;28;20042;-76
2023/01/22 00:12:15;;;;;;;37.15;13.32;;;;;;;-2.25;100.00;103301.00;4962368;28;20552;-76
2023/01/22 00:14:50;;;;;;;38.83;13.60;;;;;;;-2.23;100.00;103297.63;4973222;28;20114;-76
2023/01/22 00:17:21;;;;;;;65.93;42.20;;;;;;;-2.37;100.00;103299.09;4972341;28;20061;-78
2023/01/22 00:19:47;;;;;;;64.20;42.47;;;;;;;-2.36;100.00;103305.13;4970567;28;20644;-77
2023/01/22 00:22:12;;;;;;;61.03;41.92;;;;;;;-2.32;100.00;103301.75;4970686;28;20051;-77
2023/01/22 00:24:47;;;;;;;60.13;41.75;;;;;;;-2.31;100.00;103303.47;4983839;28;20039;-77
2023/01/22 00:27:22;;;;;;;34.75;12.75;;;;;;;-2.22;100.00;103299.34;4971226;28;20054;-77
2023/01/22 00:29:49;;;;;;;32.05;11.70;;;;;;;-2.19;100.00;103295.97;4971881;28;20042;-78
2023/01/22 00:32:14;;;;;;;57.10;40.97;;;;;;;-2.29;100.00;103297.50;4970608;28;20109;-78
2023/01/22 00:34:51;;;;;;;60.38;42.35;;;;;;;-2.29;100.00;103286.34;4971223;28;20027;-77
2023/01/22 00:37:16;;;;;;;58.20;41.65;;;;;;;-2.28;100.00;103288.06;4970795;28;20439;-78
2023/01/22 00:39:48;;;;;;;63.45;43.53;;;;;;;-2.30;100.00;103285.47;4970542;28;20081;-77
2023/01/22 00:42:14;;;;;;;60.43;42.27;;;;;;;-2.31;100.00;103280.28;4970567;28;20392;-77
2023/01/22 00:44:49;;;;;;;62.67;44.08;;;;;;;-2.33;100.00;103280.25;4970319;28;20286;-79
2023/01/22 00:47:14;;;;;;;59.25;41.85;;;;;;;-2.31;100.00;103280.28;4970035;28;20035;-78
2023/01/22 00:49:46;;;;;;;31.95;13.57;;;;;;;-2.22;100.00;103273.56;4970549;28;20851;-78
2023/01/22 00:52:11;;;;;;;39.20;14.45;;;;;;;-2.21;100.00;103283.03;4969362;28;20043;-77
2023/01/22 00:54:37;;;;;;;60.67;43.60;;;;;;;-2.33;100.00;103279.38;4970094;28;20038;-77
2023/01/22 00:57:09;;;;;;;37.70;13.57;;;;;;;-2.21;100.00;103284.75;4970531;28;20034;-77
2023/01/22 00:59:38;;;;;;;59.05;40.92;;;;;;;-2.32;100.00;103273.38;4969573;28;20062;-77
2023/01/22 01:02:05;;;;;;;57.53;42.63;;;;;;;-2.37;100.00;103268.16;4971984;28;20038;-77
2023/01/22 01:04:33;;;;;;;32.58;13.13;;;;;;;-2.24;100.00;103264.06;4974098;28;20034;-77
2023/01/22 01:07:00;;;;;;;30.48;11.32;;;;;;;-2.21;100.00;103266.72;4972584;28;20054;-77
2023/01/22 01:09:26;;;;;;;57.10;41.75;;;;;;;-2.32;100.00;103270.81;4973302;28;20043;-78
2023/01/22 01:11:52;;;;;;;33.10;13.05;;;;;;;-2.24;100.00;103262.38;4973893;28;20039;-78
2023/01/22 01:14:17;;;;;;;56.58;41.55;;;;;;;-2.35;100.00;103261.31;4972222;28;20047;-78
2023/01/22 01:16:43;;;;;;;33.70;12.68;;;;;;;-2.23;100.00;103253.78;4973982;28;20074;-78
2023/01/22 01:19:11;;;;;;;53.35;40.88;;;;;;;-2.40;100.00;103255.22;4980397;28;20117;-78
2023/01/22 01:21:37;;;;;;;55.65;41.25;;;;;;;-2.37;100.00;103264.72;4992048;28;20109;-78
2023/01/22 01:24:04;;;;;;;35.85;13.15;;;;;;;-2.28;100.00;103262.28;4992435;28;20042;-77
2023/01/22 01:26:29;;;;;;;55.15;41.15;;;;;;;-2.46;100.00;103254.19;4992078;28;20137;-78
2023/01/22 01:28:55;;;;;;;29.83;12.38;;;;;;;-2.33;100.00;103251.91;4993169;28;20460;-78
2023/01/22 01:31:22;;;;;;;53.10;40.75;;;;;;;-2.45;100.00;103258.50;4987709;28;20027;-78
2023/01/22 01:33:48;;;;;;;32.65;12.85;;;;;;;-2.34;100.00;103264.75;4974237;28;20113;-78
2023/01/22 01:36:18;;;;;;;33.22;12.10;;;;;;;-2.35;100.00;103251.00;4972986;28;20512;-80
2023/01/22 01:38:44;;;;;;;51.67;39.15;;;;;;;-2.51;100.00;103251.53;4956870;28;20096;-80
2023/01/22 01:41:20;;;;;;;30.23;12.82;;;;;;;-2.38;100.00;103243.22;4974054;28;20031;-78
2023/01/22 01:44:04;;;;;;;30.15;12.50;;;;;;;-2.39;100.00;103231.16;4972293;28;20030;-78
2023/01/22 01:46:30;;;;;;;36.53;12.23;;;;;;;-2.39;100.00;103232.88;4973674;28;20030;-78
2023/01/22 01:48:56;;;;;;;50.25;38.15;;;;;;;-2.59;100.00;103217.03;4972039;28;20141;-78
2023/01/22 01:51:28;;;;;;;50.47;39.10;;;;;;;-2.60;100.00;103223.91;4956091;28;20074;-78
2023/01/22 01:53:56;;;;;;;27.27;10.70;;;;;;;-2.49;100.00;103215.50;4972487;28;20045;-78
2023/01/22 01:56:27;;;;;;;49.55;38.63;;;;;;;-2.67;100.00;103222.06;4971993;28;20502;-78
2023/01/22 01:58:59;;;;;;;51.13;39.58;;;;;;;-2.72;100.00;103208.22;4955897;28;20392;-78
2023/01/22 02:01:26;;;;;;;50.78;39.25;;;;;;;-2.67;100.00;103219.47;4971445;28;20034;-79
2023/01/22 02:03:52;;;;;;;30.60;11.68;;;;;;;-2.57;100.00;103213.66;4972381;28;20122;-78
2023/01/22 02:06:18;;;;;;;22.63;10.32;;;;;;;-2.57;100.00;103211.06;4972332;28;20034;-78
2023/01/22 02:08:49;;;;;;;20.90;10.43;;;;;;;-2.57;100.00;103212.78;4972892;28;20114;-80
2023/01/22 02:11:24;;;;;;;46.28;37.33;;;;;;;-2.71;100.00;103212.53;4972035;28;20105;-78
2023/01/22 02:14:03;;;;;;;29.35;12.48;;;;;;;-2.57;100.00;103210.19;4970548;28;20042;-78
2023/01/22 02:16:41;;;;;;;48.67;37.50;;;;;;;-2.77;100.00;103222.72;4972843;28;20109;-76
2023/01/22 02:19:07;;;;;;;30.08;11.00;;;;;;;-2.62;100.00;103219.56;4972119;28;20034;-78
2023/01/22 02:21:41;;;;;;;24.02;11.57;;;;;;;-2.61;100.00;103200.69;4953570;28;20027;-77
2023/01/22 02:24:12;;;;;;;30.77;10.77;;;;;;;-2.62;100.00;103204.09;4970843;28;20038;-77
2023/01/22 02:26:39;;;;;;;29.88;10.70;;;;;;;-2.63;100.00;103203.22;4953578;28;20046;-77
2023/01/22 02:29:06;;;;;;;47.05;36.38;;;;;;;-2.79;100.00;103198.66;4971904;28;20117;-77
2023/01/22 02:31:33;;;;;;;25.58;10.88;;;;;;;-2.66;100.00;103197.16;4971777;28;20038;-79
2023/01/22 02:34:00;;;;;;;27.17;11.55;;;;;;;-2.65;100.00;103201.47;4955986;28;20034;-78
2023/01/22 02:36:33;;;;;;;46.13;35.88;;;;;;;-2.84;100.00;103208.81;4972328;28;20039;-78
2023/01/22 02:38:59;;;;;;;46.72;37.22;;;;;;;-2.83;100.00;103210.56;4972598;28;20031;-78
2023/01/22 02:41:25;;;;;;;46.40;37.40;;;;;;;-2.83;100.00;103212.28;4972417;28;20154;-78
2023/01/22 02:43:50;;;;;;;45.60;36.13;;;;;;;-2.86;100.00;103204.50;4972985;28;20039;-78
2023/01/22 02:46:16;;;;;;;27.17;11.07;;;;;;;-2.75;100.00;103205.59;4972196;28;20057;-78
2023/01/22 02:48:50;;;;;;;25.05;10.68;;;;;;;-2.75;100.00;103215.88;4972338;28;20081;-78
2023/01/22 02:51:15;;;;;;;24.15;10.20;;;;;;;-2.76;100.00;103203.84;4955057;28;20123;-78
2023/01/22 02:53:44;;;;;;;26.67;10.60;;;;;;;-2.76;100.00;103195.25;4986242;28;20126;-78
2023/01/22 02:56:13;;;;;;;43.97;34.10;;;;;;;-2.97;100.00;103198.28;4972311;28;20058;-78
2023/01/22 02:58:38;;;;;;;22.98;10.60;;;;;;;-2.83;100.00;103204.53;4972316;28;20043;-78
2023/01/22 03:01:19;;;;;;;30.08;11.20;;;;;;;-2.82;100.00;103208.84;4972087;28;20035;-78
2023/01/22 03:03:52;;;;;;;25.05;10.80;;;;;;;-2.81;100.00;103215.75;4972668;28;20030;-78
2023/01/22 03:06:33;;;;;;;28.73;10.68;;;;;;;-2.78;100.00;103213.25;4971295;28;20034;-78
2023/01/22 03:09:12;;;;;;;41.30;33.78;;;;;;;-2.83;100.00;103205.41;4973577;28;20042;-78
2023/01/22 03:11:39;;;;;;;29.15;11.68;;;;;;;-2.73;100.00;103193.59;4971944;28;20038;-78
2023/01/22 03:22:45;;;;;;;40.60;32.97;;;;;;;-2.66;100.00;103198.03;4970037;28;20038;-77
2023/01/22 03:25:11;;;;;;;40.67;33.17;;;;;;;-2.62;100.00;103196.38;4951621;28;20035;-79
2023/01/22 03:27:36;;;;;;;23.38;10.02;;;;;;;-2.52;100.00;103186.25;4949769;28;20110;-79
2023/01/22 03:30:16;;;;;;;;;;;;;;;;;;;;;
2023/01/22 03:32:42;;;;;;;36.97;31.48;;;;;;;-2.34;100.00;103177.13;4986866;28;20043;-78
2023/01/22 03:35:07;;;;;;;37.55;32.08;;;;;;;-2.26;100.00;103178.97;4989774;28;20037;-78
2023/01/22 03:37:33;;;;;;;21.95;9.57;;;;;;;-2.19;100.00;103185.09;4990461;28;20041;-77
2023/01/22 03:40:08;;;;;;;22.35;9.18;;;;;;;-2.11;100.00;103178.34;4990956;28;20392;-77
2023/01/22 03:42:33;;;;;;;36.72;30.70;;;;;;;-2.11;100.00;103172.31;4988320;28;20022;-77
2023/01/22 03:45:05;;;;;;;23.08;10.73;;;;;;;-2.04;100.00;103169.84;4989331;28;20053;-77
2023/01/22 03:47:33;;;;;;;35.65;31.77;;;;;;;-2.06;100.00;103161.22;4989597;28;20406;-77
2023/01/22 03:49:59;;;;;;;24.25;9.95;;;;;;;-2.01;100.00;103164.75;4989231;28;20064;-78
2023/01/22 03:52:30;;;;;;;20.88;9.43;;;;;;;-2.00;100.00;103161.34;4990040;28;20069;-78
2023/01/22 03:54:56;;;;;;;18.67;9.77;;;;;;;-1.99;100.00;103162.22;4990577;28;20514;-78
2023/01/22 03:57:21;;;;;;;35.92;29.83;;;;;;;-2.04;100.00;103156.97;4989366;28;20062;-78
2023/01/22 03:59:47;;;;;;;34.47;29.67;;;;;;;-2.06;100.00;103156.06;4992616;28;20046;-78
2023/01/22 04:02:15;;;;;;;36.45;30.33;;;;;;;-2.07;100.00;103164.66;4990796;28;20089;-80
2023/01/22 04:04:43;;;;;;;16.08;8.70;;;;;;;-2.01;100.00;103169.91;4990590;28;20037;-76
2023/01/22 04:07:08;;;;;;;18.55;8.82;;;;;;;-2.02;100.00;103165.59;4990914;28;20038;-77
2023/01/22 04:09:34;;;;;;;31.80;28.13;;;;;;;-2.17;100.00;103162.78;4990152;28;20549;-77
2023/01/22 04:11:59;;;;;;;33.80;28.92;;;;;;;-2.18;100.00;103161.03;4991125;28;20052;-77
2023/01/22 04:14:24;;;;;;;33.97;29.15;;;;;;;-2.23;100.00;103166.13;4990370;28;20033;-78
2023/01/22 04:16:50;;;;;;;34.08;29.02;;;;;;;-2.23;100.00;103167.84;4990870;28;20042;-77
2023/01/22 04:19:16;;;;;;;22.15;10.73;;;;;;;-2.18;100.00;103166.19;5006093;28;20117;-77
2023/01/22 04:21:48;;;;;;;33.20;29.13;;;;;;;-2.26;100.00;103162.63;4990693;28;20726;-77
2023/01/22 04:24:13;;;;;;;17.90;9.90;;;;;;;-2.17;100.00;103157.63;4989284;28;20034;-77
2023/01/22 04:26:39;;;;;;;19.20;9.60;;;;;;;-2.15;100.00;103161.09;4989270;28;20031;-77
2023/01/22 04:29:04;;;;;;;33.28;29.65;;;;;;;-2.18;100.00;103161.03;4990703;28;20041;-77
2023/01/22 04:31:29;;;;;;;22.02;10.23;;;;;;;-2.11;100.00;103173.19;4983616;28;20062;-77
2023/01/22 04:34:06;;;;;;;35.28;29.58;;;;;;;-2.15;100.00;103163.66;4972056;28;20034;-78
2023/01/22 04:36:32;;;;;;;35.42;29.58;;;;;;;-2.15;100.00;103161.09;4971783;28;20586;-78
2023/01/22 04:38:58;;;;;;;35.65;29.50;;;;;;;-2.11;100.00;103154.25;4973968;28;20047;-78
2023/01/22 04:41:23;;;;;;;21.17;9.57;;;;;;;-2.04;100.00;103154.38;4956414;28;20050;-80
2023/01/22 04:43:49;;;;;;;23.45;10.32;;;;;;;-1.99;100.00;103159.63;4956797;28;20038;-78
2023/01/22 04:46:15;;;;;;;24.98;8.20;;;;;;;-1.97;100.00;103158.81;4973276;28;20058;-78
2023/01/22 04:48:40;;;;;;;37.42;29.15;;;;;;;-2.00;100.00;103161.34;4973739;28;20027;-78
2023/01/22 04:51:05;;;;;;;22.73;10.10;;;;;;;-1.92;100.00;103169.19;4973680;28;20027;-80
2023/01/22 04:53:31;;;;;;;34.17;28.98;;;;;;;-1.96;100.00;103152.81;4972521;28;20126;-80
2023/01/22 04:55:56;;;;;;;19.77;9.25;;;;;;;-1.90;100.00;103152.91;4974097;28;20041;-80
2023/01/22 04:58:21;;;;;;;34.15;28.08;;;;;;;-1.93;100.00;103158.00;4988081;28;20372;-80
2023/01/22 05:00:47;;;;;;;33.13;28.23;;;;;;;-1.92;100.00;103149.44;4974135;28;20038;-80
2023/01/22 05:03:12;;;;;;;31.30;26.75;;;;;;;-1.91;100.00;103158.03;4956376;28;20030;-78
2023/01/22 05:05:42;;;;;;;30.60;26.48;;;;;;;-1.93;100.00;103150.28;4973059;28;20306;-78
2023/01/22 05:08:07;;;;;;;19.23;8.52;;;;;;;-1.86;100.00;103152.94;4973766;28;20042;-78
2023/01/22 05:10:33;;;;;;;31.33;26.65;;;;;;;-1.92;100.00;103153.72;4973897;28;20043;-77
2023/01/22 05:13:04;;;;;;;21.35;9.68;;;;;;;-1.86;100.00;103158.09;4988185;28;20035;-77
2023/01/22 05:15:39;;;;;;;19.40;9.00;;;;;;;-1.84;100.00;103156.41;4974464;28;20054;-77
2023/01/22 05:18:04;;;;;;;19.05;8.73;;;;;;;-1.82;100.00;103165.91;4974261;28;20047;-77
2023/01/22 05:20:30;;;;;;;16.27;7.10;;;;;;;-1.76;100.00;103159.94;4972191;28;20053;-77
2023/01/22 05:22:55;;;;;;;27.58;24.27;;;;;;;-1.86;100.00;103153.81;4972996;28;20035;-77
2023/01/22 05:25:21;;;;;;;30.40;24.95;;;;;;;-1.86;100.00;103158.09;4971512;28;20064;-77
2023/01/22 05:27:46;;;;;;;16.40;9.30;;;;;;;-1.79;100.00;103167.66;4955192;28;20521;-77
2023/01/22 05:30:12;;;;;;;21.95;8.75;;;;;;;-1.76;100.00;103173.72;4973974;28;20037;-77
2023/01/22 05:32:37;;;;;;;14.45;7.72;;;;;;;-1.74;100.00;103178.91;4973305;28;20053;-77
2023/01/22 05:35:04;;;;;;;29.52;24.85;;;;;;;-1.80;100.00;103171.06;4955730;28;20130;-77
2023/01/22 05:37:30;;;;;;;28.40;24.83;;;;;;;-1.77;100.00;103168.53;4956995;28;20062;-77
2023/01/22 05:39:56;;;;;;;16.55;8.88;;;;;;;-1.71;100.00;103168.63;4973896;28;20060;-77
2023/01/22 05:42:21;;;;;;;27.48;23.88;;;;;;;-1.75;100.00;103172.00;4972748;28;20037;-77
2023/01/22 05:44:47;;;;;;;26.88;23.38;;;;;;;-1.76;100.00;103171.16;4956240;28;20034;-77
2023/01/22 05:47:13;;;;;;;15.25;7.85;;;;;;;-1.70;100.00;103175.50;4972958;28;20035;-79
2023/01/22 05:49:44;;;;;;;28.67;24.30;;;;;;;-1.75;100.00;103179.75;4972184;28;20034;-77
2023/01/22 05:52:10;;;;;;;17.55;8.57;;;;;;;-1.68;100.00;103189.31;4955990;28;20035;-77
2023/01/22 05:54:39;;;;;;;27.40;24.15;;;;;;;-1.73;100.00;103185.78;4973341;28;20114;-77
2023/01/22 05:57:05;;;;;;;18.88;9.13;;;;;;;-1.67;100.00;103185.88;4973804;28;20098;-77
2023/01/22 05:59:30;;;;;;;27.38;24.27;;;;;;;-1.74;100.00;103189.22;4973091;28;20037;-78
2023/01/22 06:02:05;;;;;;;27.15;24.35;;;;;;;-1.74;100.00;103194.38;4955241;28;20034;-78
2023/01/22 06:04:31;;;;;;;30.50;25.15;;;;;;;-1.72;100.00;103192.69;4973586;28;20047;-78
2023/01/22 06:07:07;;;;;;;22.92;9.13;;;;;;;-1.67;100.00;103191.03;4973628;28;20380;-77
2023/01/22 06:09:38;;;;;;;27.13;24.23;;;;;;;-1.71;100.00;103197.00;4972502;28;20038;-77
2023/01/22 06:12:06;;;;;;;15.20;8.07;;;;;;;-1.67;100.00;103197.06;4972926;28;20046;-77
2023/01/22 06:14:31;;;;;;;23.00;8.70;;;;;;;-1.64;100.00;103191.94;4973208;28;20034;-80
2023/01/22 06:16:57;;;;;;;17.55;8.52;;;;;;;-1.65;100.00;103190.22;4972113;28;20031;-77
2023/01/22 06:19:22;;;;;;;17.95;7.90;;;;;;;-1.65;100.00;103187.63;4962188;28;20399;-78
2023/01/22 06:21:48;;;;;;;17.55;8.63;;;;;;;-1.64;100.00;103191.94;4972285;28;20031;-80
2023/01/22 06:24:13;;;;;;;17.45;8.30;;;;;;;-1.64;100.00;103189.38;4989558;28;20628;-78
2023/01/22 06:26:38;;;;;;;30.08;26.13;;;;;;;-1.72;100.00;103193.56;4990705;28;20133;-77
2023/01/22 06:29:04;;;;;;;22.65;9.73;;;;;;;-1.65;100.00;103199.66;5006164;28;20121;-77
2023/01/22 06:31:30;;;;;;;18.92;7.97;;;;;;;-1.64;100.00;103193.66;4984031;28;20026;-77
2023/01/22 06:33:55;;;;;;;14.55;7.30;;;;;;;-1.63;100.00;103187.66;4971813;28;20097;-77
2023/01/22 06:36:21;;;;;;;27.77;24.77;;;;;;;-1.69;100.00;103192.72;4971963;28;20053;-77
2023/01/22 06:38:46;;;;;;;18.85;8.15;;;;;;;-1.62;100.00;103199.72;4971238;28;20503;-80
2023/01/22 06:41:11;;;;;;;10.15;5.90;;;;;;;-1.62;100.00;103197.13;4987004;28;20401;-80
2023/01/22 06:43:37;;;;;;;29.45;25.00;;;;;;;-1.69;100.00;103197.91;4986673;28;20388;-80
2023/01/22 06:46:03;;;;;;;28.00;24.88;;;;;;;-1.69;100.00;103185.00;4953848;28;20122;-80
2023/01/22 06:48:35;;;;;;;28.15;25.10;;;;;;;-1.68;100.00;103189.31;4971865;28;20031;-77
2023/01/22 06:51:01;;;;;;;29.40;25.83;;;;;;;-1.65;100.00;103189.34;4971833;28;20043;-78
2023/01/22 06:53:35;;;;;;;30.52;25.60;;;;;;;-1.65;100.00;103194.50;4972226;28;20037;-78
2023/01/22 06:56:01;;;;;;;20.02;7.20;;;;;;;-1.57;100.00;103198.09;4987877;28;20034;-78
2023/01/22 06:58:27;;;;;;;16.17;8.25;;;;;;;-1.55;100.00;103204.16;4970873;28;20030;-77
2023/01/22 07:00:52;;;;;;;18.02;8.57;;;;;;;-1.54;100.00;103200.72;4954338;28;20247;-76
2023/01/22 07:03:21;;;;;;;17.52;8.02;;;;;;;-1.53;100.00;103201.59;4972107;28;20038;-76
2023/01/22 07:05:54;;;;;;;18.98;8.95;;;;;;;-1.52;100.00;103205.91;4971678;28;20037;-77
2023/01/22 07:08:25;;;;;;;30.60;26.20;;;;;;;-1.60;100.00;103198.06;4971819;28;20037;-77
2023/01/22 07:10:50;;;;;;;29.90;25.48;;;;;;;-1.58;100.00;103201.53;4972461;28;20042;-80
2023/01/22 07:13:16;;;;;;;30.00;25.60;;;;;;;-1.58;100.00;103202.38;4971209;28;20399;-79
2023/01/22 07:15:42;;;;;;;18.85;9.65;;;;;;;-1.51;100.00;103205.91;4971917;28;20466;-79
2023/01/22 07:18:09;;;;;;;27.90;24.90;;;;;;;-1.55;100.00;103209.31;4971939;28;20042;-76
2023/01/22 07:20:46;;;;;;;19.35;8.80;;;;;;;-1.49;100.00;103211.97;4969550;28;20089;-77
2023/01/22 07:23:12;;;;;;;28.17;25.02;;;;;;;-1.55;100.00;103206.72;4969879;28;20046;-77
2023/01/22 07:25:37;;;;;;;30.10;25.45;;;;;;;-1.54;100.00;103207.59;4969966;28;20026;-77
2023/01/22 07:28:05;;;;;;;22.85;10.05;;;;;;;-1.49;100.00;103204.22;4969533;28;20122;-77
2023/01/22 07:30:30;;;;;;;30.50;26.13;;;;;;;-1.53;100.00;103199.88;4970658;28;20121;-77
2023/01/22 07:33:00;;;;;;;28.75;25.75;;;;;;;-1.54;100.00;103203.28;4971523;28;20113;-77
2023/01/22 07:35:26;;;;;;;28.83;25.08;;;;;;;-1.53;100.00;103204.16;4970405;28;20479;-77
2023/01/22 07:37:53;;;;;;;29.35;25.98;;;;;;;-1.52;100.00;103204.19;4971794;28;20027;-77
2023/01/22 07:40:19;;;;;;;29.35;26.17;;;;;;;-1.52;100.00;103201.59;4970054;28;20066;-77
2023/01/22 07:42:44;;;;;;;28.70;25.58;;;;;;;-1.50;100.00;103205.06;4970910;28;20050;-76
2023/01/22 07:45:10;;;;;;;32.53;25.80;;;;;;;-1.52;100.00;103206.78;4953604;28;20031;-77
2023/01/22 07:47:35;;;;;;;20.25;9.20;;;;;;;-1.44;100.00;103200.00;4952866;28;20034;-76
2023/01/22 07:50:01;;;;;;;28.85;25.58;;;;;;;-1.48;100.00;103205.97;4953957;28;20495;-77
2023/01/22 07:52:26;;;;;;;28.20;25.20;;;;;;;-1.47;100.00;103209.41;4970814;28;20039;-77
2023/01/22 07:54:52;;;;;;;28.20;25.08;;;;;;;-1.46;100.00;103217.19;4970332;28;20113;-77
2023/01/22 07:57:17;;;;;;;27.88;24.88;;;;;;;-1.46;100.00;103214.59;4970615;28;20038;-77
2023/01/22 07:59:43;;;;;;;30.23;25.58;;;;;;;-1.46;100.00;103211.16;4985348;28;20030;-78
2023/01/22 08:02:13;;;;;;;17.15;9.05;;;;;;;-1.37;100.00;103211.25;4952856;28;20381;-78
2023/01/22 08:04:39;;;;;;;16.15;8.13;;;;;;;-1.35;100.00;103225.06;4953314;28;20850;-78
2023/01/22 08:07:05;;;;;;;30.00;24.90;;;;;;;-1.44;100.00;103218.06;4970955;28;20045;-78
2023/01/22 08:09:30;;;;;;;28.65;24.85;;;;;;;-1.43;100.00;103217.22;4970231;28;20391;-78
2023/01/22 08:11:56;;;;;;;15.90;7.82;;;;;;;-1.34;100.00;103222.50;4972844;28;20046;-78
2023/01/22 08:14:21;;;;;;;18.48;8.18;;;;;;;-1.32;100.00;103217.34;4974731;28;20118;-78
2023/01/22 08:16:50;;;;;;;18.48;8.27;;;;;;;-1.28;100.00;103216.53;4974809;28;20035;-78
2023/01/22 08:19:16;;;;;;;27.80;23.08;;;;;;;-1.31;100.00;103222.53;4975078;28;20046;-79
2023/01/22 08:21:41;;;;;;;16.88;8.35;;;;;;;-1.22;100.00;103231.25;4973612;28;20030;-78
2023/01/22 08:24:09;;;;;;;22.20;8.45;;;;;;;-1.18;100.00;103230.47;4973386;28;20408;-77
2023/01/22 08:26:34;;;;;;;26.35;22.77;;;;;;;-1.21;100.00;103233.84;4956309;28;20035;-77
2023/01/22 08:28:59;;;;;;;27.00;22.90;;;;;;;-1.20;100.00;103230.44;4975371;28;20097;-77
2023/01/22 08:31:31;;;;;;;24.63;22.02;;;;;;;-1.16;100.00;103236.50;4979351;28;20058;-77
2023/01/22 08:34:01;;;;;;;24.38;21.77;;;;;;;-1.14;100.00;103242.56;4994909;28;20411;-77
2023/01/22 08:36:26;;;;;;;23.17;20.80;;;;;;;-1.12;100.00;103239.16;4993584;28;20121;-77
2023/01/22 08:38:58;;;;;;;22.88;20.10;;;;;;;-1.13;100.00;103242.59;4994436;28;20137;-77
2023/01/22 08:41:30;;;;;;;15.73;7.72;;;;;;;-1.04;100.00;103236.66;4976466;28;20113;-78
2023/01/22 08:43:55;;;;;;;22.70;20.33;;;;;;;-1.09;100.00;103243.50;4993555;28;20038;-77
2023/01/22 08:46:33;;;;;;;24.73;18.83;;;;;;;-1.08;100.00;103250.41;4994143;28;20423;-77
2023/01/22 08:48:59;;;;;;;22.90;20.42;;;;;;;-1.09;100.00;103239.19;4994654;28;20042;-77
2023/01/22 08:51:25;;;;;;;21.77;19.50;;;;;;;-1.07;100.00;103242.66;4975648;28;20034;-77
2023/01/22 08:53:51;;;;;;;21.88;19.50;;;;;;;-1.06;100.00;103243.53;4994510;28;20041;-78
2023/01/22 08:56:16;;;;;;;21.00;18.80;;;;;;;-1.06;100.00;103239.22;4994338;28;20486;-78
2023/01/22 08:58:42;;;;;;;22.42;19.45;;;;;;;-1.02;100.00;103240.13;4992785;28;20475;-78
2023/01/22 09:01:14;;;;;;;16.55;8.18;;;;;;;-0.94;100.00;103238.50;4994026;28;20034;-78
2023/01/22 09:03:39;;;;;;;19.65;17.65;;;;;;;-1.00;100.00;103239.31;4994118;28;20026;-78
2023/01/22 09:06:04;;;;;;;21.65;18.98;;;;;;;-0.98;100.00;103237.59;4992355;28;20534;-81
2023/01/22 09:08:30;;;;;;;20.63;18.17;;;;;;;-1.02;100.00;103234.97;4993272;28;20103;-80
2023/01/22 09:10:55;;;;;;;21.08;18.67;;;;;;;-1.03;100.00;103231.53;4993542;28;20045;-78
2023/01/22 09:13:21;;;;;;;20.48;18.35;;;;;;;-1.00;100.00;103241.03;4992153;28;20506;-78
2023/01/22 09:15:46;;;;;;;22.17;18.27;;;;;;;-1.01;100.00;103241.88;4993495;28;20117;-78
2023/01/22 09:18:11;;;;;;;21.23;18.42;;;;;;;-0.95;100.00;103247.09;4992997;28;20602;-78
2023/01/22 09:20:37;;;;;;;13.00;6.82;;;;;;;-0.89;100.00;103247.19;4992110;28;20402;-78
2023/01/22 09:23:03;;;;;;;13.02;6.50;;;;;;;-0.85;100.00;103242.91;4975355;28;20069;-78
2023/01/22 09:25:28;;;;;;;22.52;18.02;;;;;;;-0.91;100.00;103248.00;4975616;28;20033;-78
2023/01/22 09:28:01;;;;;;;12.10;6.65;;;;;;;-0.84;100.00;103249.81;4974630;28;20078;-78
2023/01/22 09:30:28;;;;;;;14.00;7.10;;;;;;;-0.83;100.00;103247.25;4992614;28;20038;-78
2023/01/22 09:32:54;;;;;;;20.58;18.38;;;;;;;-0.86;100.00;103246.34;4974425;28;20121;-78
2023/01/22 09:35:19;;;;;;;20.88;17.73;;;;;;;-0.85;100.00;103254.13;4992570;28;20129;-78
2023/01/22 09:37:45;;;;;;;20.15;16.73;;;;;;;-0.81;100.00;103249.84;4992919;28;20031;-78
2023/01/22 09:40:29;;;;;;;21.65;17.73;;;;;;;-0.79;100.00;103253.34;4990428;28;20403;-78
2023/01/22 09:43:24;;;;;;;21.85;16.88;;;;;;;-0.75;100.00;103255.13;4991642;28;20038;-78
2023/01/22 09:45:54;;;;;;;20.02;17.92;;;;;;;-0.80;100.00;103254.16;4993366;28;20104;-76
2023/01/22 09:48:21;;;;;;;19.30;17.27;;;;;;;-0.80;100.00;103262.81;5007144;28;20030;-77
2023/01/22 09:50:47;;;;;;;20.20;17.80;;;;;;;-0.78;100.00;103260.25;4993334;28;20038;-77
2023/01/22 09:53:16;;;;;;;20.27;18.10;;;;;;;-0.77;100.00;103268.03;4993184;28;20049;-77
2023/01/22 09:55:46;;;;;;;18.73;16.77;;;;;;;-0.75;100.00;103262.88;4992284;28;20034;-77
2023/01/22 09:58:23;;;;;;;19.55;17.45;;;;;;;-0.74;100.00;103262.88;4992438;28;20471;-80
2023/01/22 10:00:59;;;;;;;20.13;18.00;;;;;;;-0.78;100.00;103266.28;4991449;28;20034;-77
2023/01/22 10:03:38;;;;;;;19.20;17.05;;;;;;;-0.76;100.00;103254.25;4992712;28;20034;-77
2023/01/22 10:06:20;;;;;;;19.83;17.27;;;;;;;-0.73;100.00;103264.63;4992140;28;20050;-78
2023/01/22 10:08:57;;;;;;;15.20;7.35;;;;;;;-0.64;100.00;103261.25;4992203;28;20066;-78
2023/01/22 10:11:23;;;;;;;19.58;17.48;;;;;;;-0.73;100.00;103264.63;4991837;28;20078;-78
2023/01/22 10:13:54;;;;;;;21.80;18.13;;;;;;;-0.69;100.00;103260.34;5007660;28;20076;-78
2023/01/22 10:16:19;;;;;;;22.13;7.10;;;;;;;-0.63;100.00;103271.63;4990755;28;20034;-78
2023/01/22 10:19:11;;;;;;;19.85;17.75;;;;;;;-0.65;100.00;103272.47;4992814;28;20042;-77
2023/01/22 10:21:52;;;;;;;23.65;18.38;;;;;;;-0.65;100.00;103268.16;4992489;28;20399;-78
2023/01/22 10:24:17;;;;;;;19.70;17.20;;;;;;;-0.65;100.00;103273.31;5007146;28;20038;-78
2023/01/22 10:26:53;;;;;;;19.17;17.10;;;;;;;-0.65;100.00;103278.50;4992017;28;20034;-78
2023/01/22 10:29:35;;;;;;;19.20;17.30;;;;;;;-0.66;100.00;103276.75;4989418;28;20560;-78
2023/01/22 10:32:17;;;;;;;20.48;17.70;;;;;;;-0.69;100.00;103263.81;4983231;28;20035;-78
2023/01/22 10:34:43;;;;;;;17.60;7.20;;;;;;;-0.60;100.00;103267.34;4990843;28;20066;-79
2023/01/22 10:37:16;;;;;;;18.85;16.85;;;;;;;-0.65;100.00;103256.94;4990918;28;20324;-79
2023/01/22 10:39:49;;;;;;;19.33;17.33;;;;;;;-0.61;100.00;103263.88;4973811;28;20038;-79
2023/01/22 10:42:20;;;;;;;21.55;17.88;;;;;;;-0.64;100.00;103254.38;4991568;28;20033;-82
2023/01/22 10:44:46;;;;;;;24.63;17.00;;;;;;;-0.59;100.00;103256.16;5005835;28;20585;-82
2023/01/22 10:47:22;;;;;;;18.30;16.42;;;;;;;-0.57;100.00;103262.19;4991825;28;20113;-79
2023/01/22 10:50:08;;;;;;;19.50;16.38;;;;;;;-0.60;100.00;103263.03;4974528;28;20030;-79
2023/01/22 10:52:57;;;;;;;19.30;16.15;;;;;;;-0.61;100.00;103268.19;5006184;28;20061;-79
2023/01/22 10:55:25;;;;;;;19.70;17.60;;;;;;;-0.61;100.00;103273.34;4990816;28;20436;-79
2023/01/22 10:57:58;;;;;;;19.55;16.30;;;;;;;-0.61;100.00;103275.94;4990619;28;20030;-79
2023/01/22 11:00:33;;;;;;;17.85;15.93;;;;;;;-0.59;100.00;103279.41;4991024;28;20118;-79
2023/01/22 11:02:59;;;;;;;19.40;16.25;;;;;;;-0.61;100.00;103268.19;4991528;28;20129;-79
2023/01/22 11:05:38;;;;;;;21.50;17.17;;;;;;;-0.56;100.00;103269.09;4990249;28;20113;-79
2023/01/22 11:08:09;;;;;;;15.80;6.63;;;;;;;-0.48;100.00;103272.63;4990856;28;20498;-79
2023/01/22 11:11:00;;;;;;;14.10;6.00;;;;;;;-0.44;100.00;103261.47;4990783;28;20514;-79
2023/01/22 11:13:53;;;;;;;17.15;15.32;;;;;;;-0.49;100.00;103237.28;4972756;28;20070;-79
2023/01/22 11:16:21;;;;;;;21.75;16.25;;;;;;;-0.49;100.00;103240.75;4991311;28;20105;-79
2023/01/22 11:18:56;;;;;;;20.30;16.95;;;;;;;-0.46;100.00;103240.75;5005994;28;20038;-79
2023/01/22 11:21:35;;;;;;;21.52;16.63;;;;;;;-0.44;100.00;103246.81;5006154;28;20482;-80